createdAt,value
2023-05-10T00:00:36.886Z,97010.75
2023-05-10T00:10:46.581Z,97003.94
2023-05-10T00:20:49.945Z,96990.75
2023-05-10T00:30:52.252Z,96997.25
2023-05-10T00:40:54.842Z,96966.91
2023-05-10T00:50:57.276Z,96970.81
2023-05-10T01:00:59.931Z,96936.09
2023-05-10T01:11:02.374Z,96943.25
2023-05-10T01:21:37.346Z,96941.00
2023-05-10T01:31:58.221Z,96915.63
2023-05-10T01:42:12.182Z,96909.69
2023-05-10T01:52:20.521Z,96927.50
2023-05-10T02:02:25.430Z,96912.53
2023-05-10T02:12:29.905Z,96911.31
2023-05-10T02:22:33.037Z,96915.72
2023-05-10T02:32:36.627Z,96894.94
2023-05-10T02:42:43.390Z,96908.09
2023-05-10T02:52:49.295Z,96907.41
2023-05-10T03:02:51.672Z,96906.94
2023-05-10T03:13:20.318Z,96926.31
2023-05-10T03:45:50.810Z,96927.63
2023-05-10T03:55:53.062Z,96944.25
2023-05-10T04:06:03.142Z,96931.28
2023-05-10T04:16:06.113Z,96933.59
2023-05-10T04:26:08.474Z,96927.22
2023-05-10T04:36:11.107Z,96929.44
2023-05-10T04:46:13.465Z,96912.09
2023-05-10T04:56:16.063Z,96896.09
2023-05-10T05:06:18.336Z,96900.72
2023-05-10T05:16:20.712Z,96903.53
2023-05-10T05:26:23.019Z,96902.53
2023-05-10T05:36:25.616Z,96901.44
2023-05-10T05:46:27.972Z,96904.97
2023-05-10T05:56:30.287Z,96877.81
2023-05-10T06:06:33.487Z,96899.03
2023-05-10T06:16:36.119Z,96899.13
2023-05-10T06:26:38.460Z,96896.47
2023-05-10T06:36:40.754Z,96885.97
2023-05-10T06:46:43.210Z,96870.00
2023-05-10T06:56:45.584Z,96887.25
2023-05-10T07:06:47.904Z,96876.69
2023-05-10T07:16:50.622Z,96861.47
2023-05-10T07:26:52.944Z,96858.63
2023-05-10T07:36:55.470Z,96844.44
2023-05-10T07:46:57.788Z,96860.97
2023-05-10T07:57:01.285Z,96867.38
2023-05-10T08:07:03.747Z,96875.78
2023-05-10T08:17:06.432Z,96890.03
2023-05-10T08:27:10.035Z,96886.31
2023-05-10T08:37:14.560Z,96911.13
2023-05-10T08:47:19.337Z,96907.47
2023-05-10T08:57:21.870Z,96918.59
2023-05-10T09:07:24.283Z,96925.66
2023-05-10T09:17:28.371Z,96934.25
2023-05-10T09:27:30.913Z,96900.91
2023-05-10T09:37:33.276Z,96921.34
2023-05-10T09:47:36.729Z,96935.97
2023-05-10T09:57:39.963Z,96938.78
2023-05-10T10:07:42.457Z,96930.56
2023-05-10T10:17:45.122Z,96923.66
2023-05-10T10:27:53.355Z,96912.66
2023-05-10T10:37:55.695Z,96910.28
2023-05-10T10:48:26.052Z,96905.28
2023-05-10T10:58:33.209Z,96899.47
2023-05-10T11:08:44.278Z,96912.50
2023-05-10T11:19:00.853Z,96902.69
2023-05-10T11:29:05.627Z,96901.34
2023-05-10T11:39:08.016Z,96912.34
2023-05-10T11:49:10.415Z,96904.13
2023-05-10T11:59:16.234Z,96909.84
2023-05-10T12:09:23.002Z,96935.44
2023-05-10T12:19:40.903Z,96936.13
2023-05-10T12:29:58.903Z,96944.41
2023-05-10T12:40:01.389Z,96949.22
2023-05-10T12:50:04.994Z,96945.38
2023-05-10T13:00:08.115Z,96947.91
2023-05-10T13:10:11.383Z,96953.38
2023-05-10T13:20:13.850Z,96947.00
2023-05-10T13:30:16.504Z,96945.59
2023-05-10T13:40:19.036Z,96947.41
2023-05-10T13:50:21.718Z,96943.72
2023-05-10T14:00:24.105Z,96939.34
2023-05-10T14:10:26.680Z,96953.59
2023-05-10T14:20:29.049Z,96952.25
2023-05-10T14:30:32.806Z,96935.09
2023-05-10T14:40:35.639Z,96941.53
2023-05-10T14:50:37.919Z,96934.94
2023-05-10T15:00:42.043Z,96939.47
2023-05-10T15:10:44.709Z,96945.44
2023-05-10T15:20:47.007Z,96949.38
2023-05-10T15:30:49.542Z,96947.00
2023-05-10T15:40:51.821Z,96945.38
2023-05-10T15:50:54.216Z,96946.09
2023-05-10T16:00:56.539Z,96962.38
2023-05-10T16:10:58.852Z,96958.19
2023-05-10T16:21:02.153Z,96979.19
2023-05-10T16:31:04.537Z,96988.00
2023-05-10T16:41:07.032Z,96998.09
2023-05-10T16:51:09.567Z,96979.31
2023-05-10T17:01:12.376Z,97001.69
2023-05-10T17:11:14.683Z,97003.53
2023-05-10T17:21:17.262Z,97012.94
2023-05-10T17:31:19.809Z,97031.81
2023-05-10T17:41:22.530Z,97047.91
2023-05-10T17:51:24.797Z,97047.84
2023-05-10T18:01:27.157Z,97066.97
2023-05-10T18:11:29.508Z,97068.75
2023-05-10T18:21:31.810Z,97073.16
2023-05-10T18:31:34.328Z,97092.75
2023-05-10T18:41:36.985Z,97106.59
2023-05-10T18:51:39.258Z,97126.50
2023-05-10T19:01:41.923Z,97127.69
2023-05-10T19:11:44.275Z,97144.66
2023-05-10T19:21:48.839Z,97145.75
2023-05-10T19:31:52.655Z,97155.97
2023-05-10T19:41:55.145Z,97158.66
2023-05-10T19:51:57.428Z,97142.31
2023-05-10T20:01:59.730Z,97160.91
2023-05-10T20:12:02.664Z,97169.47
2023-05-10T20:22:05.589Z,97167.63
2023-05-10T20:32:07.949Z,97171.28
2023-05-10T20:42:10.334Z,97164.53
2023-05-10T20:52:12.782Z,97162.09
2023-05-10T21:02:15.051Z,97153.16
2023-05-10T21:12:17.353Z,97165.38
2023-05-10T21:22:19.627Z,97165.09
2023-05-10T21:32:21.947Z,97173.22
2023-05-10T21:42:24.267Z,97161.78
2023-05-10T21:52:27.160Z,97176.16
2023-05-10T22:10:10.552Z,97166.91
2023-05-10T22:20:13.003Z,97174.44
2023-05-10T22:30:15.759Z,97183.88
2023-05-10T22:40:19.007Z,97180.13
2023-05-10T22:50:21.775Z,97180.84
2023-05-10T23:00:24.177Z,97195.47
2023-05-10T23:10:27.012Z,97197.63
2023-05-10T23:20:29.296Z,97193.16
2023-05-10T23:30:31.968Z,97200.00
2023-05-10T23:40:35.702Z,97200.00
2023-05-10T23:50:37.978Z,97195.56
